createdAt,value
2019-03-22T00:01:42.614Z,83.84
2019-03-22T00:04:12.398Z,83.46
2019-03-22T00:06:42.128Z,83.72
2019-03-22T00:09:11.857Z,83.89
2019-03-22T00:11:41.583Z,84.18
2019-03-22T00:14:11.302Z,84.49
2019-03-22T00:16:41.025Z,84.74
2019-03-22T00:19:10.737Z,84.67
2019-03-22T00:21:40.478Z,84.44
2019-03-22T00:24:10.203Z,84.76
2019-03-22T00:26:40.009Z,84.78
2019-03-22T00:29:09.708Z,84.90
2019-03-22T00:31:39.382Z,85.11
2019-03-22T00:34:09.129Z,85.00
2019-03-22T00:36:38.808Z,85.02
2019-03-22T00:39:08.504Z,85.24
2019-03-22T00:41:38.261Z,85.40
2019-03-22T00:44:07.929Z,85.43
2019-03-22T00:46:37.849Z,85.33
2019-03-22T00:49:07.539Z,84.82
2019-03-22T00:51:37.263Z,84.75
2019-03-22T00:54:07.004Z,84.75
2019-03-22T00:56:36.772Z,85.04
2019-03-22T00:59:06.584Z,85.23
2019-03-22T01:01:36.324Z,85.26
2019-03-22T01:04:06.116Z,85.28
2019-03-22T01:06:35.826Z,85.45
2019-03-22T01:09:07.099Z,85.55
2019-03-22T01:11:37.267Z,85.85
2019-03-22T01:14:06.993Z,85.66
2019-03-22T01:16:36.707Z,85.70
2019-03-22T01:19:06.722Z,85.74
2019-03-22T01:21:36.481Z,86.01
2019-03-22T01:24:06.164Z,86.15
2019-03-22T01:26:35.882Z,86.11
2019-03-22T01:29:06.325Z,85.91
2019-03-22T01:31:36.173Z,85.70
2019-03-22T01:34:06.091Z,85.58
2019-03-22T01:36:35.805Z,85.58
2019-03-22T01:39:07.090Z,85.73
2019-03-22T01:41:36.815Z,85.63
2019-03-22T01:44:06.559Z,85.67
2019-03-22T01:46:36.255Z,85.97
2019-03-22T01:49:06.223Z,85.86
2019-03-22T01:51:35.945Z,85.84
2019-03-22T01:54:05.676Z,86.12
2019-03-22T01:56:35.407Z,86.48
2019-03-22T01:59:05.108Z,86.32
2019-03-22T02:01:34.794Z,86.41
2019-03-22T02:04:04.511Z,86.29
2019-03-22T02:06:34.223Z,86.06
2019-03-22T02:09:04.870Z,85.80
2019-03-22T02:11:34.582Z,85.74
2019-03-22T02:14:04.279Z,85.64
2019-03-22T02:16:34.048Z,85.64
2019-03-22T02:19:03.760Z,85.35
2019-03-22T02:21:34.074Z,85.62
2019-03-22T02:24:03.753Z,85.95
2019-03-22T02:26:33.471Z,86.23
2019-03-22T02:29:03.791Z,86.31
2019-03-22T02:31:33.492Z,85.93
2019-03-22T02:34:03.250Z,86.10
2019-03-22T02:36:33.033Z,86.33
2019-03-22T02:39:02.783Z,86.42
2019-03-22T02:41:32.519Z,86.64
2019-03-22T02:44:02.322Z,86.55
2019-03-22T02:46:32.112Z,86.47
2019-03-22T02:49:01.908Z,86.51
2019-03-22T02:51:31.602Z,86.77
2019-03-22T02:54:02.612Z,86.80
2019-03-22T02:56:32.376Z,86.71
2019-03-22T02:59:02.070Z,86.81
2019-03-22T03:01:32.002Z,86.60
2019-03-22T03:04:02.205Z,86.59
2019-03-22T03:06:31.941Z,86.70
2019-03-22T03:09:01.618Z,86.65
2019-03-22T03:11:31.317Z,86.61
2019-03-22T03:14:02.474Z,86.62
2019-03-22T03:16:32.412Z,86.41
2019-03-22T03:19:02.112Z,86.52
2019-03-22T03:21:31.804Z,86.30
2019-03-22T03:24:02.548Z,86.07
2019-03-22T03:26:32.233Z,86.06
2019-03-22T03:29:03.602Z,86.13
2019-03-22T03:31:34.145Z,86.61
2019-03-22T03:34:03.893Z,86.48
2019-03-22T03:36:35.069Z,86.94
2019-03-22T03:39:06.727Z,87.00
2019-03-22T03:41:36.489Z,87.22
2019-03-22T03:44:06.265Z,87.25
2019-03-22T03:46:35.992Z,87.17
2019-03-22T03:49:06.025Z,87.23
2019-03-22T03:51:35.727Z,87.23
2019-03-22T03:54:05.424Z,87.46
2019-03-22T03:56:35.147Z,87.73
2019-03-22T03:59:07.589Z,87.63
2019-03-22T04:01:37.351Z,87.62
2019-03-22T04:04:07.039Z,87.74
2019-03-22T04:06:36.710Z,87.77
2019-03-22T04:09:08.708Z,87.79
2019-03-22T04:11:38.400Z,87.93
2019-03-22T04:14:08.219Z,87.93
2019-03-22T04:16:38.040Z,87.80
2019-03-22T04:19:07.855Z,87.81
2019-03-22T04:21:37.644Z,87.91
2019-03-22T04:24:07.326Z,87.98
2019-03-22T04:26:37.047Z,87.97
2019-03-22T04:29:08.297Z,88.16
2019-03-22T04:31:38.671Z,88.23
2019-03-22T04:34:08.360Z,88.25
2019-03-22T04:36:38.044Z,88.38
2019-03-22T04:39:08.826Z,88.26
2019-03-22T04:41:38.549Z,88.25
2019-03-22T04:44:08.308Z,88.11
2019-03-22T04:46:38.593Z,88.12
2019-03-22T04:49:08.393Z,88.09
2019-03-22T04:51:38.230Z,88.02
2019-03-22T04:54:09.757Z,88.02
2019-03-22T04:56:40.603Z,88.00
2019-03-22T04:59:19.159Z,87.96
2019-03-22T05:01:45.828Z,88.05
2019-03-22T05:04:15.809Z,88.10
2019-03-22T05:06:46.028Z,88.17
2019-03-22T05:09:16.419Z,88.18
2019-03-22T05:11:47.578Z,88.34
2019-03-22T05:14:18.311Z,88.27
2019-03-22T05:16:50.321Z,88.23
2019-03-22T05:19:21.227Z,88.15
2019-03-22T05:21:51.610Z,88.20
2019-03-22T05:24:22.141Z,88.28
2019-03-22T05:26:52.015Z,88.29
2019-03-22T05:29:30.434Z,88.45
2019-03-22T05:32:11.855Z,88.40
2019-03-22T05:34:41.573Z,88.38
2019-03-22T05:37:11.303Z,88.44
2019-03-22T05:39:44.036Z,88.61
2019-03-22T05:42:13.732Z,88.64
2019-03-22T05:44:43.419Z,88.68
2019-03-22T05:47:13.363Z,88.48
2019-03-22T05:49:43.049Z,88.16
2019-03-22T05:52:12.952Z,88.22
2019-03-22T05:54:42.695Z,88.32
2019-03-22T05:57:13.521Z,88.50
2019-03-22T05:59:43.672Z,88.76
2019-03-22T06:02:13.365Z,88.75
2019-03-22T06:04:43.124Z,88.63
2019-03-22T06:07:12.903Z,88.57
2019-03-22T06:09:42.608Z,88.64
2019-03-22T06:12:12.366Z,88.59
2019-03-22T06:14:42.132Z,88.42
2019-03-22T06:17:11.855Z,88.19
2019-03-22T06:19:41.560Z,88.18
2019-03-22T06:22:11.446Z,88.18
2019-03-22T06:24:41.133Z,88.24
2019-03-22T06:27:10.932Z,88.26
2019-03-22T06:29:40.798Z,88.14
2019-03-22T06:32:10.510Z,88.05
2019-03-22T06:34:40.242Z,88.00
2019-03-22T06:37:09.936Z,88.05
2019-03-22T06:39:39.614Z,88.11
2019-03-22T06:42:09.347Z,87.98
2019-03-22T06:44:39.089Z,88.15
2019-03-22T06:47:10.967Z,87.99
2019-03-22T06:49:40.311Z,87.92
2019-03-22T06:52:10.033Z,87.95
2019-03-22T06:54:39.800Z,87.94
2019-03-22T06:57:09.482Z,87.69
2019-03-22T06:59:39.301Z,87.62
2019-03-22T07:02:09.044Z,87.26
2019-03-22T07:04:38.866Z,87.19
2019-03-22T07:07:08.574Z,87.45
2019-03-22T07:09:38.262Z,87.13
2019-03-22T07:12:08.122Z,87.23
2019-03-22T07:14:37.843Z,87.09
2019-03-22T07:17:07.533Z,86.74
2019-03-22T07:19:37.784Z,86.46
2019-03-22T07:22:07.496Z,86.07
2019-03-22T07:24:37.222Z,86.08
2019-03-22T07:27:06.961Z,86.32
2019-03-22T07:29:36.687Z,85.89
2019-03-22T07:32:06.376Z,85.91
2019-03-22T07:34:36.389Z,85.78
2019-03-22T07:37:06.148Z,85.81
2019-03-22T07:39:35.864Z,85.72
2019-03-22T07:42:05.665Z,85.90
2019-03-22T07:44:35.398Z,85.50
2019-03-22T07:47:05.073Z,84.89
2019-03-22T07:49:34.909Z,84.07
2019-03-22T07:52:04.785Z,84.18
2019-03-22T07:54:34.492Z,84.21
2019-03-22T07:57:04.178Z,84.22
2019-03-22T07:59:33.896Z,83.92
2019-03-22T08:02:03.596Z,83.62
2019-03-22T08:04:33.348Z,83.65
2019-03-22T08:07:03.081Z,83.07
2019-03-22T08:09:32.757Z,83.74
2019-03-22T08:12:02.691Z,83.70
2019-03-22T08:14:32.385Z,82.88
2019-03-22T08:17:02.238Z,81.92
2019-03-22T08:19:31.875Z,81.69
2019-03-22T08:22:02.990Z,80.95
2019-03-22T08:24:32.717Z,80.72
2019-03-22T08:27:02.500Z,80.54
2019-03-22T08:29:32.408Z,80.16
2019-03-22T08:32:03.680Z,79.88
2019-03-22T08:34:33.494Z,79.35
2019-03-22T08:37:03.215Z,79.45
2019-03-22T08:39:32.889Z,80.20
2019-03-22T08:42:02.983Z,79.91
2019-03-22T08:44:32.734Z,77.82
2019-03-22T08:47:02.496Z,78.90
2019-03-22T08:49:32.349Z,79.03
2019-03-22T08:52:02.203Z,79.22
2019-03-22T08:54:31.889Z,78.64
2019-03-22T08:57:02.221Z,79.10
2019-03-22T08:59:31.931Z,77.96
2019-03-22T09:02:01.600Z,78.72
2019-03-22T09:04:31.367Z,78.34
2019-03-22T09:07:01.103Z,78.96
2019-03-22T09:09:40.925Z,79.07
2019-03-22T09:12:02.273Z,79.03
2019-03-22T09:14:32.008Z,78.82
2019-03-22T09:17:01.725Z,78.84
2019-03-22T09:19:31.422Z,78.97
2019-03-22T09:22:01.265Z,78.57
2019-03-22T09:24:39.122Z,78.55
2019-03-22T09:27:03.110Z,77.82
2019-03-22T09:29:32.844Z,77.81
2019-03-22T09:32:03.673Z,77.21
2019-03-22T09:34:34.298Z,76.74
2019-03-22T09:37:04.123Z,76.40
2019-03-22T09:39:33.861Z,76.24
2019-03-22T09:42:03.657Z,75.78
2019-03-22T09:44:42.869Z,73.96
2019-03-22T09:47:04.806Z,74.16
2019-03-22T09:49:34.651Z,73.71
2019-03-22T09:52:04.382Z,73.60
2019-03-22T09:54:34.120Z,74.07
2019-03-22T09:57:03.877Z,73.15
2019-03-22T09:59:33.628Z,72.98
2019-03-22T10:02:03.344Z,72.75
2019-03-22T10:04:33.024Z,71.94
2019-03-22T10:07:02.812Z,72.05
2019-03-22T10:09:32.544Z,70.49
2019-03-22T10:12:03.319Z,70.82
2019-03-22T10:14:33.038Z,70.51
2019-03-22T10:17:02.785Z,70.41
2019-03-22T10:19:32.493Z,70.41
2019-03-22T10:22:04.064Z,69.83
2019-03-22T10:24:33.893Z,69.11
2019-03-22T10:27:05.214Z,69.40
2019-03-22T10:29:35.207Z,68.53
2019-03-22T10:32:05.016Z,68.36
2019-03-22T10:34:35.773Z,67.60
2019-03-22T10:37:05.542Z,66.21
2019-03-22T10:39:35.313Z,66.48
2019-03-22T10:42:04.992Z,63.83
2019-03-22T10:44:34.695Z,63.38
2019-03-22T10:47:04.435Z,64.07
2019-03-22T10:49:34.232Z,63.55
2019-03-22T10:52:04.709Z,63.00
2019-03-22T10:54:34.471Z,62.87
2019-03-22T10:57:04.486Z,62.73
2019-03-22T10:59:34.268Z,61.21
2019-03-22T11:02:07.557Z,61.02
2019-03-22T11:04:35.692Z,60.22
2019-03-22T11:07:05.775Z,60.60
2019-03-22T11:09:35.607Z,59.34
2019-03-22T11:12:12.141Z,57.52
2019-03-22T11:14:36.977Z,59.37
2019-03-22T11:19:47.212Z,58.10
2019-03-22T11:22:16.984Z,58.75
2019-03-22T11:24:46.762Z,57.52
2019-03-22T11:27:16.556Z,58.68
2019-03-22T11:29:46.258Z,57.55
2019-03-22T11:32:16.017Z,55.47
2019-03-22T11:34:45.740Z,54.55
2019-03-22T11:37:15.651Z,53.14
2019-03-22T11:39:46.259Z,52.82
2019-03-22T11:42:15.943Z,51.89
2019-03-22T11:44:45.661Z,51.59
2019-03-22T11:47:15.364Z,49.57
2019-03-22T11:49:45.199Z,49.86
2019-03-22T11:52:14.905Z,50.17
2019-03-22T11:54:44.640Z,50.90
2019-03-22T11:57:14.361Z,48.36
2019-03-22T11:59:44.215Z,49.45
2019-03-22T12:02:22.200Z,48.21
2019-03-22T12:04:45.511Z,49.40
2019-03-22T12:07:15.233Z,49.58
2019-03-22T12:09:44.969Z,47.83
2019-03-22T12:12:14.656Z,47.37
2019-03-22T12:14:44.356Z,47.17
2019-03-22T12:17:14.117Z,48.19
2019-03-22T12:19:43.937Z,45.84
2019-03-22T12:22:13.712Z,46.65
2019-03-22T12:24:43.511Z,46.37
2019-03-22T12:27:13.211Z,47.76
2019-03-22T12:29:42.920Z,46.55
2019-03-22T12:32:12.855Z,45.70
2019-03-22T12:34:42.568Z,45.26
2019-03-22T12:37:12.323Z,45.05
2019-03-22T12:39:42.674Z,42.59
2019-03-22T12:42:12.409Z,43.64
2019-03-22T12:44:42.205Z,39.79
2019-03-22T12:47:11.939Z,39.12
2019-03-22T12:49:41.645Z,38.67
2019-03-22T12:52:11.345Z,38.85
2019-03-22T12:54:41.085Z,37.74
2019-03-22T12:57:10.779Z,37.96
2019-03-22T12:59:40.507Z,37.47
2019-03-22T13:02:10.207Z,37.26
2019-03-22T13:04:40.056Z,37.50
2019-03-22T13:07:09.996Z,38.06
2019-03-22T13:09:39.721Z,34.74
2019-03-22T13:12:09.459Z,36.63
2019-03-22T13:14:39.236Z,36.66
2019-03-22T13:17:08.976Z,37.17
2019-03-22T13:19:38.702Z,37.79
2019-03-22T13:22:08.475Z,37.21
2019-03-22T13:24:38.398Z,33.26
2019-03-22T13:27:08.487Z,36.99
2019-03-22T13:29:38.426Z,35.83
2019-03-22T13:32:08.132Z,35.29
2019-03-22T13:34:37.860Z,34.82
2019-03-22T13:37:07.680Z,36.16
2019-03-22T13:39:37.392Z,36.37
2019-03-22T13:42:07.096Z,36.34
2019-03-22T13:44:36.925Z,36.18
2019-03-22T13:47:06.792Z,35.28
2019-03-22T13:49:36.504Z,35.19
2019-03-22T13:52:06.199Z,36.70
2019-03-22T13:54:35.940Z,36.89
2019-03-22T13:57:05.686Z,36.08
2019-03-22T13:59:35.395Z,36.73
2019-03-22T14:02:06.172Z,34.25
2019-03-22T14:04:35.913Z,36.72
2019-03-22T14:07:05.653Z,37.17
2019-03-22T14:09:35.372Z,36.32
2019-03-22T14:12:05.090Z,35.53
2019-03-22T14:14:34.878Z,34.75
2019-03-22T14:17:04.746Z,33.74
2019-03-22T14:19:34.454Z,34.47
2019-03-22T14:22:06.265Z,34.88
2019-03-22T14:24:36.105Z,33.96
2019-03-22T14:27:05.828Z,34.66
2019-03-22T14:29:35.551Z,33.49
2019-03-22T14:32:05.304Z,33.62
2019-03-22T14:34:35.005Z,32.23
2019-03-22T14:37:04.810Z,28.61
2019-03-22T14:39:34.666Z,31.61
2019-03-22T14:42:04.771Z,28.40
2019-03-22T14:44:35.852Z,27.31
2019-03-22T14:47:06.002Z,26.85
2019-03-22T14:49:35.878Z,26.94
2019-03-22T14:52:05.630Z,30.81
2019-03-22T14:54:35.335Z,32.80
2019-03-22T14:57:05.038Z,31.31
2019-03-22T14:59:34.827Z,31.46
2019-03-22T15:02:04.680Z,32.44
2019-03-22T15:04:34.481Z,32.55
2019-03-22T15:07:04.269Z,33.37
2019-03-22T15:09:34.015Z,33.98
2019-03-22T15:12:03.795Z,29.77
2019-03-22T15:14:44.879Z,28.01
2019-03-22T15:17:39.693Z,30.45
2019-03-22T15:20:26.633Z,34.08
2019-03-22T15:23:15.624Z,33.24
2019-03-22T15:26:16.493Z,34.81
2019-03-22T15:29:04.349Z,33.05
2019-03-22T15:32:14.155Z,29.74
2019-03-22T15:35:11.693Z,32.02
2019-03-22T15:38:04.844Z,27.90
2019-03-22T15:40:40.361Z,27.89
2019-03-22T15:43:19.646Z,28.06
2019-03-22T15:45:49.398Z,28.47
2019-03-22T15:48:19.134Z,28.81
2019-03-22T15:50:48.894Z,31.50
2019-03-22T15:53:18.632Z,30.33
2019-03-22T15:55:48.373Z,32.54
2019-03-22T15:58:25.693Z,32.78
2019-03-22T16:00:55.429Z,34.21
2019-03-22T16:03:25.287Z,35.24
2019-03-22T16:05:55.102Z,36.11
2019-03-22T16:08:24.813Z,35.46
2019-03-22T16:11:03.446Z,36.43
2019-03-22T16:13:37.356Z,34.83
2019-03-22T16:16:07.101Z,34.15
2019-03-22T16:18:36.844Z,34.02
2019-03-22T16:21:06.570Z,34.51
2019-03-22T16:23:36.299Z,34.60
2019-03-22T16:26:18.035Z,33.42
2019-03-22T16:28:52.993Z,34.71
2019-03-22T16:31:22.699Z,33.58
2019-03-22T16:33:54.722Z,32.93
2019-03-22T16:36:23.815Z,30.66
2019-03-22T16:38:53.543Z,34.35
2019-03-22T16:41:23.229Z,33.64
2019-03-22T16:43:53.247Z,35.18
2019-03-22T16:46:22.945Z,35.72
2019-03-22T16:48:52.763Z,35.73
2019-03-22T16:51:22.453Z,35.88
2019-03-22T16:53:52.185Z,35.44
2019-03-22T16:56:21.888Z,35.91
2019-03-22T16:58:51.630Z,35.87
2019-03-22T17:01:21.375Z,36.00
2019-03-22T17:03:51.337Z,37.24
2019-03-22T17:06:21.138Z,36.83
2019-03-22T17:08:50.962Z,38.20
2019-03-22T17:11:20.712Z,37.34
2019-03-22T17:13:50.426Z,36.91
2019-03-22T17:16:20.209Z,37.93
2019-03-22T17:18:49.941Z,38.53
2019-03-22T17:21:19.659Z,39.39
2019-03-22T17:23:49.382Z,41.24
2019-03-22T17:26:19.204Z,41.99
2019-03-22T17:28:48.950Z,42.46
2019-03-22T17:31:18.919Z,44.06
2019-03-22T17:33:48.641Z,44.41
2019-03-22T17:36:18.383Z,44.74
2019-03-22T17:38:48.151Z,45.34
2019-03-22T17:41:39.423Z,46.71
2019-03-22T17:44:09.160Z,47.89
2019-03-22T17:46:38.859Z,49.19
2019-03-22T17:49:08.597Z,47.81
2019-03-22T17:51:38.351Z,48.22
2019-03-22T17:54:08.197Z,48.16
2019-03-22T17:56:37.936Z,48.87
2019-03-22T17:59:07.666Z,50.28
2019-03-22T18:01:37.359Z,52.25
2019-03-22T18:04:07.147Z,52.58
2019-03-22T18:06:36.844Z,53.76
2019-03-22T18:09:08.112Z,53.67
2019-03-22T18:11:37.811Z,55.33
2019-03-22T18:14:07.543Z,56.04
2019-03-22T18:16:37.325Z,56.72
2019-03-22T18:19:09.362Z,56.21
2019-03-22T18:21:39.806Z,56.19
2019-03-22T18:24:09.600Z,57.29
2019-03-22T18:26:40.401Z,57.14
2019-03-22T18:29:10.180Z,58.34
2019-03-22T18:31:40.372Z,58.63
2019-03-22T18:34:10.108Z,59.63
2019-03-22T18:36:39.863Z,59.67
2019-03-22T18:39:10.284Z,60.63
2019-03-22T18:41:40.010Z,60.50
2019-03-22T18:44:09.750Z,59.45
2019-03-22T18:46:39.630Z,58.83
2019-03-22T18:49:09.455Z,58.31
2019-03-22T18:51:39.399Z,59.84
2019-03-22T18:54:09.165Z,61.06
2019-03-22T18:56:38.983Z,61.80
2019-03-22T18:59:08.817Z,60.92
2019-03-22T19:01:38.780Z,60.03
2019-03-22T19:04:08.579Z,60.73
2019-03-22T19:06:38.348Z,59.77
2019-03-22T19:09:09.107Z,59.27
2019-03-22T19:11:38.909Z,59.66
2019-03-22T19:14:08.696Z,60.43
2019-03-22T19:16:38.478Z,59.64
2019-03-22T19:19:08.187Z,61.46
2019-03-22T19:21:38.049Z,62.76
2019-03-22T19:24:07.778Z,62.32
2019-03-22T19:26:37.677Z,62.70
2019-03-22T19:29:07.460Z,63.56
2019-03-22T19:31:38.671Z,63.95
2019-03-22T19:34:08.733Z,64.35
2019-03-22T19:36:38.521Z,63.92
2019-03-22T19:39:08.559Z,65.04
2019-03-22T19:41:38.759Z,66.23
2019-03-22T19:44:09.654Z,66.62
2019-03-22T19:46:39.526Z,67.11
2019-03-22T19:49:09.345Z,67.29
2019-03-22T19:51:39.237Z,67.80
2019-03-22T19:54:09.185Z,67.78
2019-03-22T19:56:38.992Z,67.73
2019-03-22T19:59:08.963Z,68.40
2019-03-22T20:01:40.057Z,68.26
2019-03-22T20:04:10.139Z,68.57
2019-03-22T20:06:40.385Z,69.17
2019-03-22T20:09:10.925Z,69.56
2019-03-22T20:11:40.911Z,69.54
2019-03-22T20:14:10.908Z,69.57
2019-03-22T20:16:40.668Z,69.51
2019-03-22T20:19:10.668Z,69.75
2019-03-22T20:21:41.603Z,69.97
2019-03-22T20:24:11.362Z,70.71
2019-03-22T20:26:41.352Z,70.93
2019-03-22T20:29:12.021Z,71.37
2019-03-22T20:31:43.284Z,71.72
2019-03-22T20:34:13.109Z,71.67
2019-03-22T20:36:43.831Z,72.06
2019-03-22T20:39:13.681Z,71.78
2019-03-22T20:41:43.702Z,71.99
2019-03-22T20:44:13.935Z,72.12
2019-03-22T20:46:45.939Z,71.96
2019-03-22T20:49:17.267Z,71.88
2019-03-22T20:51:47.038Z,72.32
2019-03-22T20:54:17.237Z,72.52
2019-03-22T20:56:47.237Z,72.86
2019-03-22T20:59:17.355Z,73.45
2019-03-22T21:01:47.516Z,73.11
2019-03-22T21:04:17.291Z,73.26
2019-03-22T21:06:47.487Z,73.08
2019-03-22T21:09:17.438Z,73.62
2019-03-22T21:11:48.465Z,74.15
2019-03-22T21:14:19.268Z,74.24
2019-03-22T21:16:49.153Z,74.02
2019-03-22T21:19:18.935Z,74.43
2019-03-22T21:21:48.687Z,74.50
2019-03-22T21:24:18.465Z,74.50
2019-03-22T21:26:48.583Z,74.08
2019-03-22T21:29:18.386Z,74.48
2019-03-22T21:31:48.153Z,75.17
2019-03-22T21:34:17.996Z,75.13
2019-03-22T21:36:47.743Z,75.00
2019-03-22T21:39:17.555Z,75.62
2019-03-22T21:41:47.284Z,76.12
2019-03-22T21:44:17.000Z,75.60
2019-03-22T21:46:47.690Z,75.61
2019-03-22T21:49:17.448Z,75.44
2019-03-22T21:51:47.142Z,75.22
2019-03-22T21:54:16.848Z,73.38
2019-03-22T21:56:46.714Z,73.17
2019-03-22T21:59:16.556Z,72.46
2019-03-22T22:01:46.280Z,72.33
2019-03-22T22:04:16.144Z,70.95
2019-03-22T22:06:47.772Z,71.39
2019-03-22T22:09:17.307Z,71.23
2019-03-22T22:11:47.076Z,71.38
2019-03-22T22:14:16.835Z,71.65
2019-03-22T22:16:46.570Z,72.31
2019-03-22T22:19:16.381Z,72.77
2019-03-22T22:21:46.089Z,72.72
2019-03-22T22:24:26.213Z,72.84
2019-03-22T22:26:56.602Z,73.06
2019-03-22T22:29:26.285Z,73.36
2019-03-22T22:31:56.022Z,73.95
2019-03-22T22:34:25.720Z,73.59
2019-03-22T22:36:55.532Z,73.32
2019-03-22T22:39:25.324Z,72.86
2019-03-22T22:41:55.019Z,72.75
2019-03-22T22:44:24.753Z,73.44
2019-03-22T22:46:54.489Z,72.96
2019-03-22T22:49:24.471Z,73.83
2019-03-22T22:51:54.161Z,74.42
2019-03-22T22:54:23.866Z,74.06
2019-03-22T22:56:53.608Z,73.54
2019-03-22T22:59:23.354Z,73.14
2019-03-22T23:01:53.156Z,71.73
2019-03-22T23:04:22.868Z,70.42
2019-03-22T23:06:52.641Z,70.19
2019-03-22T23:09:22.369Z,70.45
2019-03-22T23:11:52.109Z,70.60
2019-03-22T23:14:21.947Z,70.96
2019-03-22T23:16:51.675Z,71.37
2019-03-22T23:19:21.453Z,71.76
2019-03-22T23:21:51.293Z,72.27
2019-03-22T23:24:21.055Z,72.84
2019-03-22T23:26:50.825Z,73.90
2019-03-22T23:29:20.551Z,74.66
2019-03-22T23:31:50.327Z,75.08
2019-03-22T23:34:20.006Z,75.76
2019-03-22T23:36:50.059Z,76.34
2019-03-22T23:39:19.768Z,76.83
2019-03-22T23:41:49.527Z,77.40
2019-03-22T23:44:19.319Z,78.24
2019-03-22T23:46:49.017Z,78.21
2019-03-22T23:49:18.923Z,78.82
2019-03-22T23:51:48.682Z,80.17
2019-03-22T23:54:18.520Z,80.42
2019-03-22T23:56:48.237Z,82.26
2019-03-22T23:59:18.016Z,82.25
